SARM/MCS METAR and TAF weather

Enter ICAO airport designator
Station Type Date Time Source
SARM METAR 2021/07/26 10:15 UTC NOAA

SARM 261015Z 18007KT 9999 -TSRA SCT006 BKN035 FEW050CB 15/13 Q1011


Station Type Date Time Source
SARM Decoded METAR 2021/07/26 10:15 UTC NOAA

Monte Caseros Aerodrome, Argentina (SARM) 30-16S 057-39W 54M
Jul 26, 2021 - 06:15 AM EDT / 2021.07.26 1015 UTC
Wind: from the S (180 degrees) at 8 MPH (7 KT):0
Visibility: greater than 7 mile(s):0
Sky conditions: mostly cloudy
Weather: light rain with thunder; Cumulonimbus clouds observed
Temperature: 59 F (15 C)
Dew Point: 55 F (13 C)
Relative Humidity: 87%
Pressure (altimeter): 29.85 in. Hg (1011 hPa)
ob: SARM 261015Z 18007KT 9999 -TSRA SCT006 BKN035 FEW050CB 15/13 Q1011
cycle: 10

Station Type Date Time Source
SARM TAF UTC NOAA

Error!

Example: see airport list